createdAt,value
2017-04-26T00:00:52.415Z,61.98
2017-04-26T00:02:01.828Z,61.69
2017-04-26T00:03:12.184Z,61.76
2017-04-26T00:04:22.536Z,61.79
2017-04-26T00:05:32.883Z,62.36
2017-04-26T00:06:43.242Z,61.88
2017-04-26T00:07:53.300Z,61.79
2017-04-26T00:09:03.359Z,61.98
2017-04-26T00:10:13.711Z,61.98
2017-04-26T00:11:24.056Z,62.26
2017-04-26T00:12:34.409Z,61.98
2017-04-26T00:13:44.752Z,61.88
2017-04-26T00:14:55.123Z,61.88
2017-04-26T00:16:05.473Z,62.46
2017-04-26T00:17:15.808Z,62.23
2017-04-26T00:18:25.911Z,62.17
2017-04-26T00:19:35.954Z,62.14
2017-04-26T00:20:46.335Z,61.85
2017-04-26T00:21:56.664Z,62.33
2017-04-26T00:23:07.264Z,61.94
2017-04-26T00:24:17.297Z,62.33
2017-04-26T00:25:27.704Z,62.23
2017-04-26T00:26:38.063Z,62.14
2017-04-26T00:27:48.416Z,62.23
2017-04-26T00:28:58.453Z,62.04
2017-04-26T00:30:08.546Z,62.04
2017-04-26T00:31:18.900Z,61.94
2017-04-26T00:32:29.245Z,62.33
2017-04-26T00:33:38.976Z,61.94
2017-04-26T00:34:48.698Z,61.82
2017-04-26T00:35:59.080Z,61.91
2017-04-26T00:37:09.164Z,62.3
2017-04-26T00:38:19.515Z,61.91
2017-04-26T00:39:29.858Z,61.91
2017-04-26T00:40:39.909Z,61.91
2017-04-26T00:41:50.250Z,61.91
2017-04-26T00:43:00.629Z,61.91
2017-04-26T00:44:10.987Z,61.88
2017-04-26T00:45:21.342Z,61.82
2017-04-26T00:46:31.685Z,61.91
2017-04-26T00:47:41.744Z,61.91
2017-04-26T00:48:52.086Z,62.2
2017-04-26T00:50:01.819Z,62.01
2017-04-26T00:51:12.150Z,61.91
2017-04-26T00:52:22.493Z,62.17
2017-04-26T00:53:32.891Z,62.2
2017-04-26T00:54:43.257Z,62.37
2017-04-26T00:55:53.578Z,62.3
2017-04-26T00:57:03.925Z,61.98
2017-04-26T00:58:14.293Z,61.79
2017-04-26T00:59:24.638Z,62.27
2017-04-26T01:00:35.008Z,62.08
2017-04-26T01:01:45.376Z,61.69
2017-04-26T01:02:55.715Z,61.69
2017-04-26T01:04:05.443Z,61.79
2017-04-26T01:05:15.846Z,61.79
2017-04-26T01:06:25.873Z,62.37
2017-04-26T01:07:35.915Z,62.37
2017-04-26T01:08:46.272Z,62.17
2017-04-26T01:09:56.627Z,62.17
2017-04-26T01:11:06.694Z,62.27
2017-04-26T01:12:17.044Z,61.79
2017-04-26T01:13:27.385Z,61.79
2017-04-26T01:14:37.412Z,62.27
2017-04-26T01:15:47.449Z,62.08
2017-04-26T01:16:57.503Z,61.69
2017-04-26T01:18:07.840Z,61.79
2017-04-26T01:19:17.869Z,61.79
2017-04-26T01:20:27.908Z,61.6
2017-04-26T01:21:38.260Z,61.79
2017-04-26T01:22:48.647Z,61.79
2017-04-26T01:23:58.993Z,61.57
2017-04-26T01:25:09.030Z,61.57
2017-04-26T01:26:18.763Z,61.95
2017-04-26T01:27:29.043Z,62.24
2017-04-26T01:28:39.076Z,61.76
2017-04-26T01:29:49.418Z,61.76
2017-04-26T01:30:59.154Z,61.95
2017-04-26T01:32:09.486Z,61.95
2017-04-26T01:33:19.201Z,62.24
2017-04-26T01:34:29.248Z,61.76
2017-04-26T01:35:39.295Z,61.76
2017-04-26T01:36:49.644Z,61.76
2017-04-26T01:37:59.683Z,61.47
2017-04-26T01:39:09.735Z,62.04
2017-04-26T01:40:20.134Z,61.66
2017-04-26T01:41:30.490Z,62.04
2017-04-26T01:42:40.511Z,62.04
2017-04-26T01:43:50.549Z,61.76
2017-04-26T01:45:00.896Z,61.57
2017-04-26T01:46:11.264Z,61.57
2017-04-26T01:47:21.627Z,61.57
2017-04-26T01:48:31.961Z,61.76
2017-04-26T01:49:42.329Z,61.63
2017-04-26T01:50:52.688Z,61.63
2017-04-26T01:52:02.789Z,61.54
2017-04-26T01:53:13.131Z,61.44
2017-04-26T01:54:23.491Z,61.54
2017-04-26T01:55:33.835Z,61.82
2017-04-26T01:56:43.861Z,61.82
2017-04-26T01:57:54.189Z,61.72
2017-04-26T01:59:04.536Z,61.82
2017-04-26T02:00:14.907Z,61.63
2017-04-26T02:01:25.253Z,61.92
2017-04-26T02:02:35.293Z,61.92
2017-04-26T02:03:45.652Z,62.01
2017-04-26T02:04:55.999Z,61.92
2017-04-26T02:06:06.351Z,61.72
2017-04-26T02:07:16.697Z,61.72
2017-04-26T02:08:27.062Z,61.92
2017-04-26T02:09:36.793Z,61.92
2017-04-26T02:10:46.832Z,61.72
2017-04-26T02:11:57.174Z,62.01
2017-04-26T02:13:07.540Z,61.92
2017-04-26T02:14:17.887Z,61.92
2017-04-26T02:15:28.274Z,61.92
2017-04-26T02:16:38.302Z,61.44
2017-04-26T02:17:48.684Z,61.44
2017-04-26T02:18:58.716Z,61.63
2017-04-26T02:20:08.743Z,61.63
2017-04-26T02:21:19.081Z,61.63
2017-04-26T02:22:29.416Z,61.72
2017-04-26T02:23:39.778Z,61.63
2017-04-26T02:24:50.143Z,61.44
2017-04-26T02:26:00.517Z,61.25
2017-04-26T02:27:10.871Z,61.35
2017-04-26T02:28:21.209Z,61.25
2017-04-26T02:29:31.553Z,61.44
2017-04-26T02:30:41.918Z,61.35
2017-04-26T02:31:51.967Z,61.35
2017-04-26T02:33:02.300Z,61.25
2017-04-26T02:34:12.369Z,61.25
2017-04-26T02:35:22.714Z,61.25
2017-04-26T02:36:33.061Z,61.25
2017-04-26T02:37:43.648Z,61.16
2017-04-26T02:38:53.993Z,61.16
2017-04-26T02:40:04.336Z,61.25
2017-04-26T02:41:14.682Z,61.16
2017-04-26T02:42:24.706Z,61.06
2017-04-26T02:43:35.056Z,61.25
2017-04-26T02:44:45.452Z,61.06
2017-04-26T02:45:55.490Z,61.25
2017-04-26T02:47:05.841Z,61.35
2017-04-26T02:48:16.193Z,61.25
2017-04-26T02:49:26.551Z,61.44
2017-04-26T02:50:36.900Z,61.35
2017-04-26T02:51:47.270Z,61.44
2017-04-26T02:52:57.307Z,61.44
2017-04-26T02:54:07.678Z,61.35
2017-04-26T02:55:18.035Z,61.54
2017-04-26T02:56:28.409Z,61.82
2017-04-26T02:57:38.745Z,61.54
2017-04-26T02:58:49.082Z,61.54
2017-04-26T02:59:58.830Z,61.63
2017-04-26T03:01:09.182Z,61.92
2017-04-26T03:32:50.476Z,59.95
2017-04-26T03:34:00.807Z,60.52
2017-04-26T03:35:11.138Z,61.19
2017-04-26T03:36:21.169Z,61.86
2017-04-26T03:37:31.515Z,62.34
2017-04-26T03:38:41.544Z,63
2017-04-26T03:39:51.573Z,63
2017-04-26T03:41:01.907Z,63
2017-04-26T03:42:12.254Z,63.57
2017-04-26T03:43:22.653Z,63.42
2017-04-26T03:44:32.979Z,63.32
2017-04-26T03:45:43.314Z,63.23
2017-04-26T03:46:53.654Z,63.7
2017-04-26T03:48:04.006Z,63.51
2017-04-26T03:49:14.055Z,62.88
2017-04-26T03:50:23.799Z,62.88
2017-04-26T03:51:34.171Z,62.97
2017-04-26T03:52:44.534Z,63.16
2017-04-26T03:53:54.879Z,62.91
2017-04-26T03:55:04.907Z,63
2017-04-26T03:56:14.613Z,62.71
2017-04-26T03:57:24.962Z,62.81
2017-04-26T03:58:35.321Z,62.24
2017-04-26T03:59:45.361Z,62.62
2017-04-26T04:00:55.715Z,62.27
2017-04-26T04:02:05.743Z,62.08
2017-04-26T04:03:16.099Z,61.69
2017-04-26T04:04:25.826Z,61.79
2017-04-26T04:05:36.156Z,62.08
2017-04-26T04:06:46.505Z,61.69
2017-04-26T04:07:56.856Z,61.98
2017-04-26T04:09:07.207Z,61.98
2017-04-26T04:10:17.240Z,61.82
2017-04-26T04:11:27.599Z,62.18
2017-04-26T04:12:37.618Z,62.27
2017-04-26T04:13:47.653Z,62.3
2017-04-26T04:14:57.710Z,62.21
2017-04-26T04:16:07.740Z,61.92
2017-04-26T04:17:18.092Z,61.72
2017-04-26T04:18:28.447Z,61.92
2017-04-26T04:19:38.509Z,62.21
2017-04-26T04:20:48.859Z,62.01
2017-04-26T04:21:59.220Z,61.63
2017-04-26T04:23:09.571Z,61.72
2017-04-26T04:24:19.926Z,61.44
2017-04-26T04:25:30.271Z,61.63
2017-04-26T04:26:40.635Z,61.92
2017-04-26T04:27:50.661Z,61.72
2017-04-26T04:29:00.690Z,62.01
2017-04-26T04:30:11.045Z,61.63
2017-04-26T04:31:21.392Z,61.57
2017-04-26T04:32:31.446Z,61.72
2017-04-26T04:33:41.791Z,61.47
2017-04-26T04:34:52.131Z,61.38
2017-04-26T04:36:02.164Z,61.38
2017-04-26T04:37:12.549Z,61.28
2017-04-26T04:38:22.887Z,61.47
2017-04-26T04:39:32.917Z,61.76
2017-04-26T04:40:43.257Z,61.76
2017-04-26T04:41:53.605Z,61.09
2017-04-26T04:43:03.643Z,61.76
2017-04-26T04:44:14.021Z,61.47
2017-04-26T04:45:24.370Z,61.47
2017-04-26T04:46:34.086Z,61.28
2017-04-26T04:47:44.450Z,61.38
2017-04-26T04:48:54.797Z,61.38
2017-04-26T04:50:05.177Z,61.28
2017-04-26T04:51:15.540Z,61.28
2017-04-26T04:52:25.883Z,61.38
2017-04-26T04:53:35.914Z,61.38
2017-04-26T04:54:46.274Z,61.28
2017-04-26T04:55:56.296Z,61.47
2017-04-26T04:57:06.025Z,61.38
2017-04-26T04:58:16.048Z,61.38
2017-04-26T04:59:26.399Z,61.38
2017-04-26T05:00:36.740Z,61.47
2017-04-26T05:01:47.085Z,61.19
2017-04-26T05:02:57.136Z,61.47
2017-04-26T05:04:07.479Z,61.38
2017-04-26T05:05:17.831Z,61.28
2017-04-26T05:06:28.189Z,61.47
2017-04-26T05:07:38.223Z,61.79
2017-04-26T05:08:48.257Z,61.69
2017-04-26T05:09:58.603Z,60.83
2017-04-26T05:11:08.952Z,60.64
2017-04-26T05:12:19.361Z,61.22
2017-04-26T05:13:29.712Z,61.12
2017-04-26T05:14:40.089Z,60.64
2017-04-26T05:15:50.447Z,60.93
2017-04-26T05:17:00.805Z,60.83
2017-04-26T05:18:10.843Z,60.64
2017-04-26T05:19:21.201Z,60.74
2017-04-26T05:20:31.658Z,60.64
2017-04-26T05:21:42.028Z,60.55
2017-04-26T05:22:52.063Z,60.64
2017-04-26T05:24:02.095Z,60.64
2017-04-26T05:25:12.453Z,60.64
2017-04-26T05:26:22.503Z,60.55
2017-04-26T05:27:32.844Z,60.67
2017-04-26T05:28:42.893Z,60.67
2017-04-26T05:29:52.629Z,60.86
2017-04-26T05:31:02.976Z,60.48
2017-04-26T05:32:13.343Z,60.67
2017-04-26T05:33:23.394Z,60.48
2017-04-26T05:34:33.743Z,60.48
2017-04-26T05:35:44.133Z,60.67
2017-04-26T05:36:54.467Z,60.58
2017-04-26T05:38:04.812Z,60.77
2017-04-26T05:39:14.860Z,60.8
2017-04-26T05:40:24.951Z,60.7
2017-04-26T05:41:34.993Z,60.89
2017-04-26T05:42:45.348Z,60.13
2017-04-26T05:43:55.716Z,60.32
2017-04-26T05:45:06.058Z,60.61
2017-04-26T05:46:16.407Z,59.94
2017-04-26T05:47:26.151Z,60.35
2017-04-26T05:48:36.557Z,59.77
2017-04-26T05:49:46.913Z,60.25
2017-04-26T05:50:57.273Z,60.44
2017-04-26T05:52:07.617Z,60.44
2017-04-26T05:53:17.639Z,60.64
2017-04-26T05:54:27.982Z,60.44
2017-04-26T05:55:38.013Z,60.83
2017-04-26T05:56:48.035Z,60.64
2017-04-26T05:57:58.407Z,60.35
2017-04-26T05:59:08.155Z,60.25
2017-04-26T06:00:18.523Z,60.64
2017-04-26T06:01:28.916Z,60.38
2017-04-26T06:02:39.266Z,60.67
2017-04-26T06:03:49.635Z,60.57
2017-04-26T06:04:59.668Z,60.28
2017-04-26T06:06:10.009Z,60
2017-04-26T06:07:20.380Z,60
2017-04-26T06:08:30.733Z,59.93
2017-04-26T06:09:41.081Z,60.5
2017-04-26T06:10:51.428Z,60.5
2017-04-26T06:12:01.785Z,60.6
2017-04-26T06:13:12.130Z,60.6
2017-04-26T06:14:22.162Z,60.03
2017-04-26T06:15:32.202Z,60.6
2017-04-26T06:16:42.548Z,60.5
2017-04-26T06:17:52.920Z,59.93
2017-04-26T06:19:03.299Z,60.31
2017-04-26T06:20:13.646Z,60.31
2017-04-26T06:21:23.369Z,60.79
2017-04-26T06:22:33.732Z,60.72
2017-04-26T06:23:44.084Z,60.25
2017-04-26T06:24:54.431Z,60.72
2017-04-26T06:26:04.793Z,60.63
2017-04-26T06:27:14.829Z,60.63
2017-04-26T06:28:24.870Z,60.63
2017-04-26T06:29:35.228Z,59.96
2017-04-26T06:30:45.567Z,60.25
2017-04-26T06:31:55.903Z,60.08
2017-04-26T06:33:05.941Z,59.8
2017-04-26T06:34:16.386Z,60.18
2017-04-26T06:35:26.729Z,59.89
2017-04-26T06:36:37.099Z,60.08
2017-04-26T06:37:47.456Z,60.18
2017-04-26T06:38:57.843Z,60.38
2017-04-26T06:40:08.196Z,60.08
2017-04-26T06:41:18.227Z,60.08
2017-04-26T06:42:28.573Z,60.4
2017-04-26T06:43:38.917Z,60.11
2017-04-26T06:44:49.287Z,59.92
2017-04-26T06:45:59.318Z,60.4
2017-04-26T06:47:09.357Z,59.86
2017-04-26T06:48:19.413Z,60.05
2017-04-26T06:49:29.773Z,59.86
2017-04-26T06:50:40.114Z,59.76
2017-04-26T06:51:50.463Z,59.66
2017-04-26T06:53:00.811Z,60.05
2017-04-26T06:54:10.849Z,59.66
2017-04-26T06:55:21.224Z,60.53
2017-04-26T06:56:31.594Z,60.27
2017-04-26T06:57:41.967Z,59.95
2017-04-26T06:58:52.017Z,60.14
2017-04-26T07:00:02.369Z,60.17
2017-04-26T07:01:12.714Z,59.99
2017-04-26T07:02:23.067Z,60.27
2017-04-26T07:03:33.463Z,60.17
2017-04-26T07:04:43.814Z,59.89
2017-04-26T07:05:54.158Z,59.72
2017-04-26T07:07:04.530Z,60.01
2017-04-26T07:08:14.864Z,60.3
2017-04-26T07:09:25.212Z,59.82
2017-04-26T07:10:35.279Z,60.01
2017-04-26T07:11:45.321Z,59.24
2017-04-26T07:12:55.669Z,59.53
2017-04-26T07:14:06.059Z,59.63
2017-04-26T07:15:16.442Z,59.53
2017-04-26T07:16:26.463Z,60.01
2017-04-26T07:17:36.801Z,59.92
2017-04-26T07:18:47.142Z,60.01
2017-04-26T07:19:56.864Z,60.01
2017-04-26T07:21:06.591Z,60.04
2017-04-26T07:22:16.940Z,59.37
2017-04-26T07:23:27.284Z,59.27
2017-04-26T07:24:37.325Z,59.27
2017-04-26T07:25:47.677Z,59.66
2017-04-26T07:26:58.081Z,59.2
2017-04-26T07:28:07.490Z,59.2
2017-04-26T07:29:17.837Z,59.2
2017-04-26T07:30:27.554Z,58.63
2017-04-26T07:31:37.916Z,59.01
2017-04-26T07:32:47.952Z,58.56
2017-04-26T07:33:57.990Z,58.37
2017-04-26T07:35:07.725Z,58.65
2017-04-26T07:36:17.764Z,58.59
2017-04-26T07:37:28.119Z,58.78
2017-04-26T07:38:38.467Z,58.85
2017-04-26T07:39:48.501Z,59.55
2017-04-26T07:40:58.854Z,59.04
2017-04-26T07:42:08.895Z,59.23
2017-04-26T07:43:19.308Z,59.43
2017-04-26T07:44:29.694Z,59.43
2017-04-26T07:45:40.059Z,59.14
2017-04-26T07:46:50.440Z,59.27
2017-04-26T07:48:00.781Z,58.4
2017-04-26T07:49:11.170Z,58.97
2017-04-26T07:50:21.213Z,58.97
2017-04-26T07:51:31.570Z,59
2017-04-26T07:52:41.606Z,59.07
2017-04-26T07:53:51.969Z,59.07
2017-04-26T07:55:02.302Z,59.27
2017-04-26T07:56:12.647Z,59.75
2017-04-26T07:57:22.994Z,59.27
2017-04-26T07:58:32.713Z,59.27
2017-04-26T07:59:42.787Z,59.45
2017-04-26T08:00:52.828Z,59.36
2017-04-26T08:02:03.175Z,59.36
2017-04-26T08:03:13.538Z,58.97
2017-04-26T08:04:23.283Z,59
2017-04-26T08:05:33.662Z,58.23
2017-04-26T08:06:43.730Z,58.52
2017-04-26T08:07:53.835Z,58.04
2017-04-26T08:09:04.186Z,58.17
2017-04-26T08:10:14.553Z,58.07
2017-04-26T08:11:24.594Z,57.87
2017-04-26T08:12:34.625Z,57.81
2017-04-26T08:13:44.707Z,57.71
2017-04-26T08:14:55.045Z,58.1
2017-04-26T08:16:05.415Z,57.81
2017-04-26T08:17:15.444Z,57.9
2017-04-26T08:18:25.791Z,57.9
2017-04-26T08:19:35.835Z,58.58
2017-04-26T08:20:46.201Z,59.06
2017-04-26T08:21:55.929Z,59.42
2017-04-26T08:23:06.272Z,59.58
2017-04-26T08:24:16.362Z,59.2
2017-04-26T08:25:25.815Z,59.48
2017-04-26T08:26:36.163Z,59.3
2017-04-26T08:27:46.191Z,59.39
2017-04-26T08:28:56.219Z,59.3
2017-04-26T08:30:06.267Z,59.78
2017-04-26T08:31:15.998Z,59.1
2017-04-26T08:32:26.341Z,58.94
2017-04-26T08:33:36.392Z,58.17
2017-04-26T08:34:46.738Z,58.94
2017-04-26T08:35:57.081Z,58.65
2017-04-26T08:37:07.181Z,58.52
2017-04-26T08:38:17.523Z,58.94
2017-04-26T08:39:27.567Z,59.52
2017-04-26T08:40:37.600Z,59.39
2017-04-26T08:41:47.636Z,59.39
2017-04-26T08:42:57.679Z,59.36
2017-04-26T08:44:08.037Z,60.13
2017-04-26T08:45:18.085Z,60.58
2017-04-26T08:46:28.455Z,60.39
2017-04-26T08:47:38.179Z,60.39
2017-04-26T08:48:48.529Z,60.39
2017-04-26T08:49:58.921Z,60.1
2017-04-26T08:51:08.953Z,60.2
2017-04-26T08:52:18.995Z,60.1
2017-04-26T08:53:29.370Z,59.91
2017-04-26T08:54:39.422Z,59.91
2017-04-26T08:55:49.749Z,60
2017-04-26T08:56:59.787Z,59.81
2017-04-26T08:58:10.052Z,59.91
2017-04-26T08:59:20.410Z,59.33
2017-04-26T09:00:30.140Z,59.23
2017-04-26T09:01:40.217Z,59.23
2017-04-26T09:02:50.574Z,59.17
2017-04-26T09:04:00.620Z,58.59
2017-04-26T09:05:10.368Z,58.78
2017-04-26T09:06:20.731Z,58.88
2017-04-26T09:07:30.453Z,58.72
2017-04-26T09:08:40.809Z,59
2017-04-26T09:09:51.151Z,59
2017-04-26T09:11:01.513Z,59
2017-04-26T09:12:11.869Z,59.1
2017-04-26T09:13:22.225Z,59.1
2017-04-26T09:14:32.278Z,59.1
2017-04-26T09:15:42.320Z,59.58
2017-04-26T09:16:52.690Z,59.2
2017-04-26T09:18:02.739Z,59.3
2017-04-26T09:19:13.078Z,59
2017-04-26T09:20:23.429Z,58.81
2017-04-26T09:21:33.792Z,59
2017-04-26T09:22:43.848Z,58.52
2017-04-26T09:23:53.875Z,58.26
2017-04-26T09:25:03.924Z,58.17
2017-04-26T09:26:14.267Z,58.23
2017-04-26T09:27:24.305Z,58.52
2017-04-26T09:28:34.643Z,58.81
2017-04-26T09:29:44.726Z,58.81
2017-04-26T09:30:54.762Z,58.91
2017-04-26T09:32:05.128Z,58.91
2017-04-26T09:33:15.157Z,59.1
2017-04-26T09:34:25.524Z,58.88
2017-04-26T09:35:35.870Z,58.88
2017-04-26T09:36:45.930Z,59.45
2017-04-26T09:37:56.272Z,59.45
2017-04-26T09:39:06.315Z,59.27
2017-04-26T09:40:16.047Z,59.17
2017-04-26T09:41:26.423Z,59.55
2017-04-26T09:42:36.454Z,59.91
2017-04-26T09:43:46.824Z,60.3
2017-04-26T09:44:57.172Z,60.3
2017-04-26T09:46:07.515Z,60
2017-04-26T09:47:17.895Z,59.72
2017-04-26T09:48:27.932Z,59.43
2017-04-26T09:49:38.284Z,59.27
2017-04-26T09:50:48.321Z,59.36
2017-04-26T09:51:58.049Z,59.27
2017-04-26T09:53:08.069Z,59.36
2017-04-26T09:54:18.412Z,59.36
2017-04-26T09:55:28.768Z,59.36
2017-04-26T09:56:38.490Z,59.17
2017-04-26T09:57:48.557Z,59.36
2017-04-26T09:58:58.923Z,59.36
2017-04-26T10:00:09.283Z,59.27
2017-04-26T10:01:19.634Z,59.27
2017-04-26T10:02:29.979Z,59.45
2017-04-26T10:03:40.365Z,59.2
2017-04-26T10:04:50.402Z,58.91
2017-04-26T10:06:00.753Z,58.72
2017-04-26T10:07:11.086Z,59
2017-04-26T10:08:21.417Z,58.17
2017-04-26T10:09:31.778Z,58.45
2017-04-26T10:10:42.148Z,58.55
2017-04-26T10:11:52.491Z,58.45
2017-04-26T10:13:02.845Z,58.1
2017-04-26T10:14:22.087Z,58.29
2017-04-26T10:15:46.645Z,58.1
2017-04-26T10:16:56.986Z,57.81
2017-04-26T10:18:07.342Z,58.48
2017-04-26T10:19:17.372Z,58.19
2017-04-26T10:20:27.393Z,58.32
2017-04-26T10:21:37.777Z,58.39
2017-04-26T10:22:47.824Z,58.29
2017-04-26T10:23:58.163Z,58.22
2017-04-26T10:25:08.511Z,58.12
2017-04-26T10:26:18.863Z,57.84
2017-04-26T10:27:29.220Z,57.67
2017-04-26T10:28:51.008Z,57.96
2017-04-26T10:30:17.573Z,57.96
2017-04-26T10:31:50.842Z,57.87
2017-04-26T10:33:00.292Z,57.67
2017-04-26T10:34:10.614Z,57.87
2017-04-26T10:35:20.965Z,57.29
2017-04-26T10:36:31.333Z,57.51
2017-04-26T10:37:41.366Z,56.95
2017-04-26T10:38:51.156Z,57.76
2017-04-26T10:40:01.516Z,57.24
2017-04-26T10:41:11.267Z,57.34
2017-04-26T10:42:21.379Z,58.02
2017-04-26T10:43:31.793Z,58.12
2017-04-26T10:44:44.483Z,58.57
2017-04-26T10:45:56.750Z,58.67
2017-04-26T10:47:07.377Z,58.64
2017-04-26T10:48:17.760Z,58.18
2017-04-26T10:49:28.158Z,57.89
2017-04-26T10:50:38.548Z,57.54
2017-04-26T10:51:48.931Z,57.82
2017-04-26T10:52:59.282Z,57.95
2017-04-26T10:54:09.643Z,57.46
2017-04-26T10:55:19.695Z,56.82
2017-04-26T10:56:30.083Z,55.98
2017-04-26T10:57:39.814Z,56.1
2017-04-26T10:58:50.174Z,56.13
2017-04-26T11:00:00.230Z,56.32
2017-04-26T11:01:10.280Z,57
2017-04-26T11:02:20.706Z,56.68
2017-04-26T11:03:30.754Z,57.75
2017-04-26T11:04:41.130Z,58.39
2017-04-26T11:05:51.186Z,57.53
2017-04-26T11:07:01.573Z,57.53
2017-04-26T11:08:11.344Z,57.75
2017-04-26T11:09:21.080Z,57.45
2017-04-26T11:10:31.130Z,57.53
2017-04-26T11:11:41.494Z,58.01
2017-04-26T11:12:51.538Z,58.01
2017-04-26T11:14:01.321Z,57.91
2017-04-26T11:15:11.399Z,57.91
2017-04-26T11:16:21.446Z,57.65
2017-04-26T11:17:31.820Z,57.65
2017-04-26T11:18:42.174Z,58.04
2017-04-26T11:19:52.542Z,58.14
2017-04-26T11:21:02.904Z,58.39
2017-04-26T11:22:13.281Z,58.49
2017-04-26T11:23:23.642Z,58.59
2017-04-26T11:24:34.010Z,58.65
2017-04-26T11:25:44.375Z,58.56
2017-04-26T11:26:54.731Z,58.65
2017-04-26T11:28:05.074Z,58.47
2017-04-26T11:29:15.435Z,58.47
2017-04-26T11:30:25.835Z,58.47
2017-04-26T11:31:36.202Z,58.65
2017-04-26T11:32:46.614Z,58.95
2017-04-26T11:33:57.189Z,58.75
2017-04-26T11:35:07.556Z,59.11
2017-04-26T11:36:17.600Z,59.01
2017-04-26T11:37:28.009Z,58.72
2017-04-26T11:38:38.369Z,57.95
2017-04-26T11:39:48.711Z,58.17
2017-04-26T11:40:59.042Z,57.69
2017-04-26T11:42:09.077Z,56.85
2017-04-26T11:43:19.447Z,56.68
2017-04-26T11:44:29.477Z,56.77
2017-04-26T11:45:39.829Z,57.09
2017-04-26T11:46:50.178Z,57.09
2017-04-26T11:48:00.219Z,57.19
2017-04-26T11:49:10.616Z,56.81
2017-04-26T11:50:20.665Z,56.81
2017-04-26T11:51:31.038Z,56.83
2017-04-26T11:52:41.389Z,56.93
2017-04-26T11:53:51.743Z,57.22
2017-04-26T11:55:02.102Z,57.12
2017-04-26T11:56:12.471Z,56.93
2017-04-26T11:57:22.851Z,56.76
2017-04-26T11:58:32.911Z,56.96
2017-04-26T11:59:43.296Z,56.96
2017-04-26T12:00:53.682Z,57.25
2017-04-26T12:02:03.764Z,57.06
2017-04-26T12:03:14.113Z,57.25
2017-04-26T12:04:24.155Z,57.25
2017-04-26T12:05:34.500Z,57.83
2017-04-26T12:06:44.557Z,57.44
2017-04-26T12:07:54.291Z,56.86
2017-04-26T12:09:04.662Z,57.08
2017-04-26T12:10:15.041Z,57.18
2017-04-26T12:11:25.386Z,56.82
2017-04-26T12:12:35.728Z,56.98
2017-04-26T12:13:46.082Z,57.11
2017-04-26T12:14:56.440Z,57.11
2017-04-26T12:16:06.842Z,57.01
2017-04-26T12:17:16.583Z,57.31
2017-04-26T12:18:26.949Z,56.62
2017-04-26T12:19:36.379Z,56.65
2017-04-26T12:20:46.736Z,57.04
2017-04-26T12:21:57.091Z,57.23
2017-04-26T12:23:07.463Z,56.95
2017-04-26T12:24:17.555Z,57.23
2017-04-26T12:25:27.913Z,57.14
2017-04-26T12:26:38.427Z,57.04
2017-04-26T12:27:49.241Z,57.53
2017-04-26T12:28:59.280Z,57.89
2017-04-26T12:30:09.658Z,57.69
2017-04-26T12:31:20.041Z,57.98
2017-04-26T12:32:29.788Z,57.5
2017-04-26T12:33:40.157Z,57.67
2017-04-26T12:34:50.211Z,58.05
2017-04-26T12:36:00.571Z,57.96
2017-04-26T12:37:10.929Z,57.57
2017-04-26T12:38:21.311Z,57.98
2017-04-26T12:39:31.399Z,56.92
2017-04-26T12:40:41.742Z,57.23
2017-04-26T12:41:51.777Z,56.56
2017-04-26T12:43:02.146Z,56.95
2017-04-26T12:44:12.511Z,57.04
2017-04-26T12:45:22.583Z,57.23
2017-04-26T12:46:32.935Z,57.23
2017-04-26T12:47:43.297Z,56.95
2017-04-26T12:48:53.325Z,57.04
2017-04-26T12:50:03.668Z,57.23
2017-04-26T12:51:14.040Z,58.01
2017-04-26T12:52:24.081Z,57.72
2017-04-26T12:53:34.439Z,58.01
2017-04-26T12:54:44.791Z,58.21
2017-04-26T12:55:54.838Z,57.79
2017-04-26T12:57:04.905Z,58.28
2017-04-26T12:58:15.273Z,58.47
2017-04-26T12:59:25.631Z,58.64
2017-04-26T13:00:36.027Z,58.64
2017-04-26T13:01:46.092Z,58.51
2017-04-26T13:02:56.485Z,59.12
2017-04-26T13:04:06.848Z,58.41
2017-04-26T13:05:16.966Z,58.8
2017-04-26T13:06:27.347Z,58.9
2017-04-26T13:07:37.716Z,58.41
2017-04-26T13:08:48.077Z,58.97
2017-04-26T13:09:58.431Z,58.58
2017-04-26T13:11:08.769Z,58.58
2017-04-26T13:12:19.133Z,58.87
2017-04-26T13:13:29.185Z,58.84
2017-04-26T13:14:39.565Z,58.45
2017-04-26T13:15:49.968Z,58.26
2017-04-26T13:17:00.068Z,58
2017-04-26T13:18:10.167Z,58.09
2017-04-26T13:19:20.220Z,58.12
2017-04-26T13:20:29.964Z,57.9
2017-04-26T13:21:40.417Z,58
2017-04-26T13:22:50.781Z,58.39
2017-04-26T13:24:01.141Z,58.06
2017-04-26T13:25:11.498Z,58.65
2017-04-26T13:26:21.868Z,59.2
2017-04-26T13:27:32.245Z,58.91
2017-04-26T13:28:42.666Z,59.17
2017-04-26T13:29:53.025Z,59.36
2017-04-26T13:31:03.408Z,59.33
2017-04-26T13:32:13.446Z,59.53
2017-04-26T13:33:23.490Z,59.5
2017-04-26T13:34:33.837Z,59.69
2017-04-26T13:35:43.871Z,59.95
2017-04-26T13:36:54.245Z,59.86
2017-04-26T13:38:04.617Z,59.47
2017-04-26T13:39:14.957Z,60.21
2017-04-26T13:40:25.319Z,60.21
2017-04-26T13:41:35.685Z,60.28
2017-04-26T13:42:45.741Z,60.09
2017-04-26T13:43:55.466Z,59.8
2017-04-26T13:45:05.828Z,59.6
2017-04-26T13:46:16.224Z,59.6
2017-04-26T13:47:26.582Z,59.25
2017-04-26T13:48:36.947Z,58.95
2017-04-26T13:49:47.006Z,59.05
2017-04-26T13:50:57.354Z,59.15
2017-04-26T13:52:07.717Z,59.15
2017-04-26T13:53:17.429Z,58.47
2017-04-26T13:54:28.027Z,58.47
2017-04-26T13:55:38.386Z,58.67
2017-04-26T13:56:48.803Z,58.89
2017-04-26T13:57:59.183Z,58.28
2017-04-26T13:59:09.564Z,58.6
2017-04-26T14:00:19.303Z,58.57
2017-04-26T14:01:29.344Z,58.57
2017-04-26T14:02:39.713Z,58.57
2017-04-26T14:03:50.155Z,58.37
2017-04-26T14:05:00.514Z,58.95
2017-04-26T14:06:10.556Z,58.28
2017-04-26T14:07:20.923Z,58.57
2017-04-26T14:08:30.976Z,58.28
2017-04-26T14:09:41.033Z,58.45
2017-04-26T14:10:51.386Z,58.64
2017-04-26T14:12:01.745Z,58.15
2017-04-26T14:13:12.110Z,58.25
2017-04-26T14:14:22.175Z,58.54
2017-04-26T14:15:32.266Z,58.06
2017-04-26T14:16:42.353Z,58.25
2017-04-26T14:17:52.733Z,58.32
2017-04-26T14:19:03.101Z,58.32
2017-04-26T14:20:13.385Z,58.32
2017-04-26T14:21:23.795Z,58.32
2017-04-26T14:22:33.829Z,58.22
2017-04-26T14:23:44.210Z,58.61
2017-04-26T14:24:54.574Z,58.22
2017-04-26T14:26:04.625Z,58.77
2017-04-26T14:27:14.859Z,58.48
2017-04-26T14:28:24.929Z,58.19
2017-04-26T14:29:34.662Z,59.16
2017-04-26T14:30:44.726Z,58.68
2017-04-26T14:31:55.105Z,58.39
2017-04-26T14:33:05.477Z,58.29
2017-04-26T14:34:15.516Z,58.19
2017-04-26T14:35:25.876Z,58.75
2017-04-26T14:36:36.263Z,58.07
2017-04-26T14:37:46.625Z,58.77
2017-04-26T14:38:56.979Z,58.48
2017-04-26T14:40:07.355Z,58.36
2017-04-26T14:41:17.717Z,58.55
2017-04-26T14:42:27.752Z,58.55
2017-04-26T14:43:38.122Z,58.75
2017-04-26T14:44:48.488Z,58.58
2017-04-26T14:45:58.870Z,58.17
2017-04-26T14:47:09.209Z,58.94
2017-04-26T14:48:19.256Z,59.03
2017-04-26T14:49:29.634Z,59.13
2017-04-26T14:50:40.024Z,58.62
2017-04-26T14:51:50.380Z,58.62
2017-04-26T14:53:00.764Z,58.91
2017-04-26T14:54:11.108Z,58.42
2017-04-26T14:55:21.467Z,58.91
2017-04-26T14:56:31.862Z,59
2017-04-26T14:57:41.915Z,58.81
2017-04-26T14:58:52.309Z,58.88
2017-04-26T15:00:02.670Z,59.07
2017-04-26T15:01:12.715Z,59.07
2017-04-26T15:02:22.819Z,58.69
2017-04-26T15:03:33.192Z,58.88
2017-04-26T15:04:43.603Z,58.88
2017-04-26T15:05:53.998Z,58.56
2017-04-26T15:07:04.383Z,58.75
2017-04-26T15:08:14.795Z,58.78
2017-04-26T15:09:25.164Z,58.88
2017-04-26T15:10:35.542Z,58.95
2017-04-26T15:11:45.924Z,58.75
2017-04-26T15:12:56.286Z,58.95
2017-04-26T15:14:06.694Z,58.47
2017-04-26T15:15:17.074Z,58.17
2017-04-26T15:16:27.133Z,58.17
2017-04-26T15:17:36.860Z,58.27
2017-04-26T15:18:47.246Z,58.56
2017-04-26T15:19:56.984Z,58.56
2017-04-26T15:21:07.268Z,58.85
2017-04-26T15:22:17.019Z,58.82
2017-04-26T15:23:26.756Z,58.92
2017-04-26T15:24:37.118Z,58.92
2017-04-26T15:25:47.500Z,58.63
2017-04-26T15:26:57.850Z,58.72
2017-04-26T15:28:07.918Z,59.01
2017-04-26T15:29:17.961Z,58.02
2017-04-26T15:30:28.360Z,58.05
2017-04-26T15:31:38.391Z,57.69
2017-04-26T15:32:48.494Z,57.89
2017-04-26T15:33:58.929Z,57.98
2017-04-26T15:35:09.431Z,58.08
2017-04-26T15:36:19.802Z,57.89
2017-04-26T15:37:29.923Z,58.37
2017-04-26T15:38:40.297Z,58.27
2017-04-26T15:39:50.373Z,58.37
2017-04-26T15:41:00.745Z,58.72